Time;durP1;ratioP1;P1;durP2;ratioP2;P2;SDS_P1;SDS_P2;PMS_P1;PMS_P2;Temp;Humidity;BMP_temperature;BMP_pressure;BME280_temperature;BME280_humidity;BME280_pressure;Samples;Min_cycle;Max_cycle;Signal;HPM_P1;HPM_P2
2021/01/24 00:00:53;;;;;;;37.80;23.27;;;1.90;92.00;;;;;;4991454;28;20391;-53
2021/01/24 00:03:21;;;;;;;40.30;23.92;;;1.90;92.00;;;;;;4992217;28;20050;-55
2021/01/24 00:05:47;;;;;;;38.80;24.23;;;1.80;92.00;;;;;;4992342;28;20046;-55
2021/01/24 00:08:13;;;;;;;35.70;21.20;;;1.80;92.10;;;;;;4991115;28;20564;-51
2021/01/24 00:10:39;;;;;;;35.25;23.02;;;1.70;92.00;;;;;;4988667;28;20035;-50
2021/01/24 00:13:05;;;;;;;30.63;20.42;;;1.90;92.00;;;;;;4992785;28;20034;-54
2021/01/24 00:15:32;;;;;;;32.70;20.60;;;1.70;91.90;;;;;;4989275;28;20058;-53
2021/01/24 00:17:57;;;;;;;31.25;19.50;;;1.60;92.00;;;;;;4991833;28;20563;-53
2021/01/24 00:20:23;;;;;;;31.48;20.75;;;1.60;91.90;;;;;;4991996;28;20073;-51
2021/01/24 00:22:49;;;;;;;35.40;22.23;;;1.60;92.00;;;;;;4991936;28;20038;-50
2021/01/24 00:25:15;;;;;;;35.55;21.30;;;1.50;92.00;;;;;;4959493;28;20047;-53
2021/01/24 00:27:40;;;;;;;36.38;22.45;;;1.50;92.00;;;;;;4986763;28;20041;-53
2021/01/24 00:30:07;;;;;;;31.23;19.33;;;1.50;92.10;;;;;;4991014;28;20035;-55
2021/01/24 00:32:33;;;;;;;31.10;19.88;;;1.40;92.10;;;;;;4990051;28;20586;-54
2021/01/24 00:34:59;;;;;;;30.27;18.98;;;1.40;92.00;;;;;;4992419;28;20037;-53
2021/01/24 00:37:25;;;;;;;31.75;19.10;;;1.30;91.80;;;;;;4987899;28;20042;-54
2021/01/24 00:39:51;;;;;;;33.22;22.38;;;1.30;91.90;;;;;;4990772;28;20053;-57
2021/01/24 00:42:16;;;;;;;32.13;21.00;;;1.30;92.00;;;;;;4983440;28;20050;-55
2021/01/24 00:44:42;;;;;;;33.85;21.48;;;1.30;92.20;;;;;;4992426;28;20046;-55
2021/01/24 00:47:08;;;;;;;37.20;23.13;;;1.40;92.20;;;;;;4989364;28;20046;-54
2021/01/24 00:49:33;;;;;;;35.53;22.00;;;1.40;92.10;;;;;;4992134;28;20466;-56
2021/01/24 00:51:59;;;;;;;35.95;22.42;;;1.40;92.10;;;;;;4992010;28;20076;-51
2021/01/24 00:54:27;;;;;;;36.58;22.70;;;1.50;92.00;;;;;;4991479;28;20049;-56
2021/01/24 00:56:53;;;;;;;36.17;22.05;;;1.50;92.10;;;;;;4991636;28;20030;-55
2021/01/24 00:59:19;;;;;;;37.70;23.35;;;1.50;92.00;;;;;;4991625;28;20101;-52
2021/01/24 01:01:44;;;;;;;37.30;22.20;;;1.40;92.00;;;;;;4984783;28;20125;-54
2021/01/24 01:04:10;;;;;;;33.13;20.88;;;1.40;92.10;;;;;;4974569;28;20061;-56
2021/01/24 01:06:36;;;;;;;30.42;19.50;;;1.40;92.20;;;;;;4991813;28;20503;-50
2021/01/24 01:09:02;;;;;;;30.55;20.13;;;1.40;92.00;;;;;;4991548;28;20042;-53
2021/01/24 01:11:27;;;;;;;33.35;21.02;;;1.40;91.80;;;;;;4980062;28;20487;-53
2021/01/24 01:13:53;;;;;;;35.50;22.55;;;1.40;91.80;;;;;;4991839;28;20406;-52
2021/01/24 01:16:19;;;;;;;38.15;22.67;;;1.40;91.90;;;;;;4990999;28;20104;-53
2021/01/24 01:18:45;;;;;;;33.65;20.88;;;1.40;92.00;;;;;;4991595;28;20044;-53
2021/01/24 01:21:11;;;;;;;31.73;20.70;;;1.40;92.10;;;;;;4991970;28;20046;-55
2021/01/24 01:23:37;;;;;;;31.60;20.17;;;1.40;92.00;;;;;;4981532;28;20467;-53
2021/01/24 01:26:03;;;;;;;34.70;20.55;;;1.30;92.00;;;;;;4991225;28;20159;-53
2021/01/24 01:28:29;;;;;;;33.60;21.20;;;1.30;91.80;;;;;;4989840;28;20438;-54
2021/01/24 01:30:55;;;;;;;33.58;21.85;;;1.30;91.80;;;;;;4989093;28;20038;-56
2021/01/24 01:33:20;;;;;;;32.72;21.50;;;1.20;91.80;;;;;;4990730;28;20046;-53
2021/01/24 01:35:46;;;;;;;31.90;20.83;;;1.20;91.90;;;;;;4991319;28;20026;-51
2021/01/24 01:38:12;;;;;;;34.17;21.70;;;1.20;92.00;;;;;;4984306;28;20046;-54
2021/01/24 01:40:37;;;;;;;35.92;21.20;;;1.20;92.00;;;;;;4983032;28;20046;-52
2021/01/24 01:43:03;;;;;;;34.60;22.23;;;1.20;92.00;;;;;;4990858;28;20042;-54
2021/01/24 01:45:29;;;;;;;39.33;23.10;;;1.20;92.20;;;;;;4993147;28;20096;-54
2021/01/24 01:47:57;;;;;;;40.90;23.77;;;1.30;92.30;;;;;;4988095;28;20046;-53
2021/01/24 01:50:23;;;;;;;44.75;24.65;;;1.30;92.30;;;;;;4991386;28;20112;-54
2021/01/24 01:52:48;;;;;;;43.88;23.60;;;1.40;92.40;;;;;;4991022;28;20038;-54
2021/01/24 01:55:14;;;;;;;38.55;22.83;;;1.40;92.50;;;;;;4991266;28;20481;-54
2021/01/24 01:57:40;;;;;;;35.17;21.42;;;1.50;92.50;;;;;;4987132;28;20584;-54
2021/01/24 02:00:09;;;;;;;39.58;23.33;;;1.50;92.40;;;;;;4990708;28;20469;-53
2021/01/24 02:03:16;;;;;;;40.65;23.15;;;1.50;92.40;;;;;;4973822;28;20170;-54
2021/01/24 02:05:59;;;;;;;37.03;21.50;;;1.50;92.60;;;;;;4976312;28;20050;-54
2021/01/24 02:08:42;;;;;;;;;;;1.50;92.30;;;;;;4986784;28;20072;-55
2021/01/24 02:11:29;;;;;;;31.70;19.02;;;1.50;92.10;;;;;;4991375;28;19921;-55
2021/01/24 02:14:13;;;;;;;33.50;19.50;;;1.50;92.00;;;;;;4990306;28;20463;-54
2021/01/24 02:16:40;;;;;;;31.35;18.42;;;1.50;92.00;;;;;;4974506;28;20074;-52
2021/01/24 02:19:09;;;;;;;31.88;18.23;;;1.40;91.90;;;;;;4990375;28;20049;-56
2021/01/24 02:21:39;;;;;;;33.22;19.27;;;1.40;91.90;;;;;;4990090;28;20128;-53
2021/01/24 02:24:08;;;;;;;35.75;20.15;;;1.40;91.90;;;;;;4988854;28;20125;-54
2021/01/24 02:26:43;;;;;;;31.35;19.33;;;1.30;92.00;;;;;;4991099;28;20046;-53
2021/01/24 02:29:31;;;;;;;34.10;20.40;;;1.30;92.10;;;;;;4990644;28;20064;-55
2021/01/24 02:32:00;;;;;;;33.13;19.10;;;1.40;92.20;;;;;;4991465;28;20050;-52
2021/01/24 02:34:30;;;;;;;34.22;20.58;;;1.40;92.30;;;;;;4983389;28;20411;-52
2021/01/24 02:36:56;;;;;;;35.38;20.23;;;1.40;92.40;;;;;;4973905;28;20045;-53
2021/01/24 02:39:22;;;;;;;39.30;20.15;;;1.50;92.50;;;;;;4991525;28;20117;-54
2021/01/24 02:41:48;;;;;;;33.42;19.58;;;1.50;92.50;;;;;;4988061;28;20077;-54
2021/01/24 02:44:14;;;;;;;35.38;19.48;;;1.60;92.50;;;;;;4991545;28;20039;-53
2021/01/24 02:46:41;;;;;;;35.65;19.73;;;1.60;92.50;;;;;;4983377;28;20070;-54
2021/01/24 02:49:07;;;;;;;34.03;19.67;;;1.70;92.60;;;;;;4990781;28;20034;-54
2021/01/24 02:51:33;;;;;;;36.42;20.55;;;1.70;92.50;;;;;;4983656;28;20054;-52
2021/01/24 02:54:01;;;;;;;34.17;20.20;;;1.80;92.50;;;;;;4991158;28;20064;-54
2021/01/24 02:56:27;;;;;;;35.65;19.65;;;1.90;92.50;;;;;;4992726;28;20053;-53
2021/01/24 02:58:53;;;;;;;40.10;21.02;;;1.90;92.50;;;;;;4994843;28;20034;-52
2021/01/24 03:01:19;;;;;;;38.92;20.20;;;1.90;92.50;;;;;;4994799;28;20418;-56
2021/01/24 03:03:45;;;;;;;36.53;20.48;;;1.90;92.50;;;;;;4994584;28;20046;-55
2021/01/24 03:06:11;;;;;;;37.25;20.08;;;1.90;92.50;;;;;;4994683;28;20053;-53
2021/01/24 03:08:38;;;;;;;38.80;20.95;;;1.90;92.50;;;;;;4995221;28;20046;-54
2021/01/24 03:11:05;;;;;;;37.78;19.15;;;1.90;92.50;;;;;;4995052;28;20054;-51
2021/01/24 03:13:44;;;;;;;38.70;21.05;;;1.90;92.50;;;;;;4993833;28;20121;-55
2021/01/24 03:16:13;;;;;;;34.70;20.00;;;1.90;92.40;;;;;;4977144;28;20054;-53
2021/01/24 03:18:43;;;;;;;37.90;20.23;;;1.90;92.40;;;;;;4987523;28;20055;-53
2021/01/24 03:21:10;;;;;;;33.17;19.05;;;1.90;92.40;;;;;;4990676;28;20046;-54
2021/01/24 03:23:38;;;;;;;31.42;17.95;;;1.90;92.40;;;;;;4993875;28;20050;-54
2021/01/24 03:26:05;;;;;;;37.85;19.38;;;1.90;92.40;;;;;;4994415;28;20041;-56
2021/01/24 03:28:32;;;;;;;34.40;19.15;;;1.90;92.50;;;;;;4994607;28;20050;-51
2021/01/24 03:30:58;;;;;;;30.95;18.08;;;1.90;92.50;;;;;;4986574;28;20041;-54
2021/01/24 03:33:24;;;;;;;32.60;18.90;;;1.90;92.40;;;;;;4980624;28;20042;-53
2021/01/24 03:35:49;;;;;;;37.30;18.75;;;1.90;92.50;;;;;;4986160;28;20045;-53
2021/01/24 03:38:15;;;;;;;31.92;18.48;;;1.90;92.50;;;;;;4993805;28;20069;-54
2021/01/24 03:40:40;;;;;;;35.38;17.40;;;1.90;92.50;;;;;;4992872;28;20510;-56
2021/01/24 03:43:06;;;;;;;32.60;18.00;;;1.90;92.40;;;;;;4979966;28;20125;-54
2021/01/24 03:45:32;;;;;;;34.08;17.88;;;2.00;92.40;;;;;;4976916;28;20093;-56
2021/01/24 03:47:57;;;;;;;32.03;17.42;;;2.00;92.40;;;;;;4980789;28;20042;-53
2021/01/24 03:50:23;;;;;;;33.70;18.33;;;1.90;92.40;;;;;;4976536;28;20039;-53
2021/01/24 03:52:49;;;;;;;32.45;16.17;;;2.00;92.40;;;;;;4991802;28;20046;-52
2021/01/24 03:55:14;;;;;;;31.27;16.45;;;2.10;92.50;;;;;;4993462;28;20482;-53
2021/01/24 03:57:40;;;;;;;32.15;17.42;;;2.00;92.40;;;;;;4992527;28;20272;-55
2021/01/24 04:00:06;;;;;;;28.83;15.98;;;2.00;92.30;;;;;;4993650;28;20042;-51
2021/01/24 04:02:33;;;;;;;30.02;16.90;;;1.90;92.30;;;;;;4993641;28;20046;-55
2021/01/24 04:04:59;;;;;;;32.00;16.23;;;1.90;92.30;;;;;;4993551;28;20041;-53
2021/01/24 04:07:24;;;;;;;33.08;17.08;;;1.80;92.30;;;;;;4990837;28;20042;-53
2021/01/24 04:09:50;;;;;;;29.90;16.13;;;1.90;92.40;;;;;;4990348;28;20034;-50
2021/01/24 04:12:15;;;;;;;29.90;15.52;;;1.80;92.30;;;;;;4990576;28;20077;-52
2021/01/24 04:14:41;;;;;;;32.50;16.15;;;1.80;92.30;;;;;;4991247;28;20100;-50
2021/01/24 04:17:07;;;;;;;29.70;15.95;;;1.80;92.30;;;;;;4988117;28;20510;-51
2021/01/24 04:19:33;;;;;;;27.52;15.10;;;1.80;92.40;;;;;;4992496;28;20055;-53
2021/01/24 04:21:59;;;;;;;29.60;15.80;;;1.70;92.40;;;;;;4991996;28;20069;-54
2021/01/24 04:24:25;;;;;;;28.08;15.15;;;1.70;92.40;;;;;;4992319;28;20042;-56
2021/01/24 04:26:51;;;;;;;28.17;14.75;;;1.70;92.40;;;;;;4991109;28;20096;-56
2021/01/24 04:29:17;;;;;;;29.63;15.60;;;1.70;92.50;;;;;;4990163;28;20038;-56
2021/01/24 04:31:42;;;;;;;31.50;15.07;;;1.70;92.50;;;;;;4992071;28;20430;-54
2021/01/24 04:34:08;;;;;;;31.35;15.90;;;1.80;92.50;;;;;;4992202;28;20126;-54
2021/01/24 04:36:34;;;;;;;28.58;15.70;;;1.80;92.50;;;;;;4991357;28;20061;-50
2021/01/24 04:39:00;;;;;;;29.63;13.93;;;1.80;92.40;;;;;;4993924;28;20042;-51
2021/01/24 04:41:26;;;;;;;25.80;13.63;;;1.80;92.50;;;;;;4985801;28;20069;-55
2021/01/24 04:43:52;;;;;;;22.75;13.60;;;1.80;92.40;;;;;;4992905;28;20042;-52
2021/01/24 04:46:18;;;;;;;29.08;12.60;;;1.80;92.40;;;;;;4992044;28;20475;-54
2021/01/24 04:48:44;;;;;;;25.42;13.32;;;1.80;92.40;;;;;;4989063;28;20034;-54
2021/01/24 04:51:10;;;;;;;24.27;13.57;;;1.90;92.40;;;;;;4988187;28;20487;-51
2021/01/24 04:53:38;;;;;;;24.30;13.82;;;1.90;92.30;;;;;;4993524;28;20042;-51
2021/01/24 04:56:04;;;;;;;25.48;14.27;;;1.90;92.30;;;;;;4987563;28;20492;-53
2021/01/24 04:58:30;;;;;;;27.58;13.93;;;1.90;92.20;;;;;;4993181;28;20058;-52
2021/01/24 05:00:56;;;;;;;28.38;15.23;;;1.90;92.20;;;;;;4992798;28;20050;-54
2021/01/24 05:03:22;;;;;;;26.10;14.75;;;1.90;92.20;;;;;;4984437;28;20054;-55
2021/01/24 05:05:47;;;;;;;25.95;14.18;;;1.90;92.10;;;;;;4979660;28;20039;-52
2021/01/24 05:08:15;;;;;;;25.70;13.25;;;1.80;92.20;;;;;;4985475;28;20046;-50
2021/01/24 05:10:45;;;;;;;27.58;14.93;;;1.70;92.20;;;;;;4987578;28;20117;-53
2021/01/24 05:13:11;;;;;;;26.70;14.88;;;1.70;92.30;;;;;;4984223;28;20129;-50
2021/01/24 05:15:37;;;;;;;28.42;15.70;;;1.70;92.30;;;;;;4986468;28;20090;-51
2021/01/24 05:18:04;;;;;;;31.98;15.48;;;1.70;92.40;;;;;;4989083;28;20049;-53
2021/01/24 05:20:32;;;;;;;29.40;14.50;;;1.60;92.30;;;;;;4986360;28;20062;-54
2021/01/24 05:23:00;;;;;;;30.27;15.15;;;1.60;92.40;;;;;;4992006;28;20138;-53
2021/01/24 05:25:30;;;;;;;30.17;14.77;;;1.60;92.50;;;;;;4982833;28;20069;-51
2021/01/24 05:27:56;;;;;;;31.65;14.13;;;1.60;92.50;;;;;;4988409;28;20057;-55
2021/01/24 05:30:40;;;;;;;22.27;11.95;;;1.50;92.50;;;;;;4991794;28;20042;-56
2021/01/24 05:33:06;;;;;;;20.67;12.38;;;1.50;92.50;;;;;;4984164;28;20419;-52
2021/01/24 05:35:31;;;;;;;26.05;13.77;;;1.50;92.50;;;;;;4991196;28;20030;-51
2021/01/24 05:37:57;;;;;;;24.60;13.07;;;1.60;92.60;;;;;;4991816;28;20042;-54
2021/01/24 05:40:22;;;;;;;24.38;14.32;;;1.70;92.70;;;;;;4991363;28;20042;-51
2021/01/24 05:42:48;;;;;;;28.95;15.13;;;1.70;92.60;;;;;;4992322;28;20053;-54
2021/01/24 05:45:16;;;;;;;26.30;14.00;;;1.80;92.60;;;;;;4983442;28;20426;-53
2021/01/24 05:47:46;;;;;;;25.20;14.23;;;1.80;92.60;;;;;;4986821;28;20051;-54
2021/01/24 05:50:16;;;;;;;30.42;13.75;;;1.80;92.60;;;;;;4990020;28;20069;-55
2021/01/24 05:52:47;;;;;;;26.25;12.82;;;1.80;92.60;;;;;;4991988;28;20038;-52
2021/01/24 05:55:30;;;;;;;27.00;13.38;;;1.90;92.60;;;;;;4990589;28;20046;-53
2021/01/24 05:57:56;;;;;;;26.48;12.95;;;1.90;92.60;;;;;;4992103;28;20046;-52
2021/01/24 06:00:22;;;;;;;26.83;12.82;;;2.30;92.70;;;;;;4990399;28;20077;-54
2021/01/24 06:02:49;;;;;;;21.23;12.05;;;1.90;92.50;;;;;;4983893;28;20483;-53
2021/01/24 06:05:14;;;;;;;27.70;12.55;;;1.90;92.50;;;;;;4983495;28;20042;-51
2021/01/24 06:07:40;;;;;;;22.90;12.20;;;1.90;92.50;;;;;;4981637;28;20046;-51
2021/01/24 06:10:06;;;;;;;22.48;12.65;;;1.90;92.50;;;;;;4985982;28;20035;-53
2021/01/24 06:12:35;;;;;;;22.55;11.82;;;1.90;92.50;;;;;;4986127;28;20156;-55
2021/01/24 06:15:03;;;;;;;27.20;11.70;;;1.90;92.50;;;;;;4985279;28;20046;-56
2021/01/24 06:17:43;;;;;;;22.08;11.93;;;1.90;92.50;;;;;;4986709;28;20531;-51
2021/01/24 06:20:13;;;;;;;22.20;12.23;;;1.90;92.40;;;;;;4990953;28;20053;-52
2021/01/24 06:22:54;;;;;;;23.10;11.73;;;1.80;92.30;;;;;;4988021;28;20046;-53
2021/01/24 06:25:27;;;;;;;24.40;11.88;;;1.70;92.50;;;;;;4989155;28;20046;-51
2021/01/24 06:27:59;;;;;;;20.30;11.18;;;1.80;92.60;;;;;;4983190;28;20039;-54
2021/01/24 06:30:27;;;;;;;22.77;10.80;;;1.80;92.60;;;;;;4987815;28;20042;-53
2021/01/24 06:32:53;;;;;;;22.23;11.20;;;1.80;92.60;;;;;;4987386;28;20388;-52
2021/01/24 06:35:24;;;;;;;20.45;10.82;;;1.90;92.60;;;;;;4986949;28;20037;-55
2021/01/24 06:37:59;;;;;;;20.50;10.80;;;1.80;92.60;;;;;;4987331;28;20133;-56
2021/01/24 06:40:32;;;;;;;20.50;11.35;;;1.80;92.60;;;;;;4969737;28;20046;-51
2021/01/24 06:43:03;;;;;;;17.95;10.35;;;1.80;92.60;;;;;;4992797;28;20042;-51
2021/01/24 06:45:28;;;;;;;18.92;9.48;;;1.80;92.50;;;;;;4991841;28;20042;-50
2021/01/24 06:47:55;;;;;;;21.13;10.40;;;1.80;92.50;;;;;;4987526;28;20097;-52
2021/01/24 06:50:40;;;;;;;21.55;10.23;;;1.80;92.50;;;;;;4995187;28;20046;-54
2021/01/24 06:53:18;;;;;;;20.23;10.23;;;1.70;92.60;;;;;;4995832;28;20049;-54
2021/01/24 06:55:58;;;;;;;17.60;9.63;;;1.70;92.50;;;;;;4987491;28;20030;-52
2021/01/24 06:58:25;;;;;;;17.63;9.32;;;1.70;92.50;;;;;;4994223;28;20105;-53
2021/01/24 07:00:52;;;;;;;23.38;9.82;;;1.70;92.40;;;;;;4993504;28;20081;-54
2021/01/24 07:03:19;;;;;;;17.60;9.48;;;1.70;92.40;;;;;;4987447;28;20046;-52
2021/01/24 07:05:45;;;;;;;18.42;9.07;;;1.70;92.40;;;;;;4995167;28;20046;-53
2021/01/24 07:08:30;;;;;;;19.00;9.10;;;1.70;92.40;;;;;;4994803;28;20069;-54
2021/01/24 07:10:56;;;;;;;16.20;9.20;;;1.70;92.50;;;;;;4995405;28;20050;-53
2021/01/24 07:13:30;;;;;;;15.38;8.60;;;1.60;92.40;;;;;;4994803;28;20035;-50
2021/01/24 07:15:58;;;;;;;15.55;7.65;;;1.60;92.40;;;;;;4994090;28;20407;-52
2021/01/24 07:18:24;;;;;;;18.38;9.13;;;1.50;92.40;;;;;;4994134;28;20113;-52
2021/01/24 07:20:54;;;;;;;15.68;8.63;;;1.60;92.40;;;;;;4994758;28;20077;-53
2021/01/24 07:23:20;;;;;;;16.45;8.98;;;1.60;92.40;;;;;;4992966;28;20467;-54
2021/01/24 07:25:46;;;;;;;15.15;8.77;;;1.60;92.40;;;;;;4994937;28;20132;-54
2021/01/24 07:28:14;;;;;;;16.75;8.90;;;1.50;92.40;;;;;;4994860;28;20046;-53
2021/01/24 07:30:40;;;;;;;14.55;8.50;;;1.50;92.50;;;;;;4994649;28;20035;-54
2021/01/24 07:33:06;;;;;;;16.42;8.95;;;1.50;92.50;;;;;;4992678;28;20042;-55
2021/01/24 07:35:35;;;;;;;18.25;8.27;;;1.40;92.50;;;;;;4992165;28;20042;-55
2021/01/24 07:38:01;;;;;;;14.35;7.53;;;1.40;92.50;;;;;;4991605;28;20053;-54
2021/01/24 07:40:27;;;;;;;14.90;8.43;;;1.40;92.50;;;;;;4993583;28;20042;-54
2021/01/24 07:42:54;;;;;;;15.88;8.43;;;1.40;92.50;;;;;;4993547;28;20114;-52
2021/01/24 07:45:20;;;;;;;16.05;7.82;;;1.30;92.60;;;;;;4991436;28;20050;-50
2021/01/24 07:47:47;;;;;;;14.55;7.90;;;1.30;92.60;;;;;;4990260;28;20057;-52
2021/01/24 07:50:13;;;;;;;21.35;7.82;;;1.30;92.60;;;;;;4975197;28;20093;-52
2021/01/24 07:52:40;;;;;;;14.98;8.55;;;1.30;92.60;;;;;;4991848;28;20133;-51
2021/01/24 07:55:09;;;;;;;14.95;7.63;;;1.30;92.60;;;;;;4959344;28;20038;-50
2021/01/24 07:57:35;;;;;;;12.95;7.53;;;1.30;92.60;;;;;;4992570;28;20519;-50
2021/01/24 08:00:03;;;;;;;16.02;8.35;;;1.30;92.80;;;;;;4991829;28;20065;-54
2021/01/24 08:02:32;;;;;;;19.33;7.63;;;1.30;92.60;;;;;;4973302;28;20045;-52
2021/01/24 08:05:04;;;;;;;16.08;7.50;;;1.30;92.60;;;;;;4991616;28;20044;-52
2021/01/24 08:07:30;;;;;;;15.70;7.50;;;1.30;92.60;;;;;;4957815;28;20498;-51
2021/01/24 08:09:57;;;;;;;15.10;7.22;;;1.20;92.60;;;;;;4992932;28;20042;-52
2021/01/24 08:12:25;;;;;;;15.07;7.47;;;1.20;92.60;;;;;;4959497;28;20046;-50
2021/01/24 08:14:52;;;;;;;17.05;7.43;;;1.20;92.70;;;;;;4974596;28;20490;-53
2021/01/24 08:17:19;;;;;;;12.30;6.70;;;1.30;92.70;;;;;;4991280;28;20551;-53
2021/01/24 08:19:45;;;;;;;11.43;6.22;;;1.30;92.60;;;;;;4984714;28;20173;-52
2021/01/24 08:22:11;;;;;;;12.05;6.75;;;1.30;92.60;;;;;;4991480;28;20081;-52
2021/01/24 08:24:38;;;;;;;14.65;6.07;;;1.30;92.60;;;;;;4990799;28;20039;-52
2021/01/24 08:27:05;;;;;;;11.52;5.65;;;1.30;92.40;;;;;;4991867;28;20092;-54
2021/01/24 08:29:35;;;;;;;11.77;6.22;;;1.30;92.50;;;;;;4990812;28;20053;-51
2021/01/24 08:32:05;;;;;;;10.43;5.30;;;1.30;92.50;;;;;;4993230;28;20039;-52
2021/01/24 08:34:35;;;;;;;10.82;4.40;;;1.40;92.50;;;;;;4993670;28;20459;-50
2021/01/24 08:37:01;;;;;;;10.82;4.65;;;1.40;92.50;;;;;;4993067;28;20517;-51
2021/01/24 08:39:28;;;;;;;7.88;3.53;;;1.50;92.60;;;;;;4993441;28;20396;-50
2021/01/24 08:41:54;;;;;;;7.80;3.95;;;1.60;92.60;;;;;;4992188;28;20039;-52
2021/01/24 08:44:21;;;;;;;9.27;3.75;;;1.70;92.70;;;;;;4993321;28;20506;-50
2021/01/24 08:46:49;;;;;;;7.47;3.92;;;1.80;92.60;;;;;;4955993;28;20608;-53
2021/01/24 08:49:23;;;;;;;6.55;3.40;;;1.80;92.60;;;;;;4986725;28;20097;-55
2021/01/24 08:51:58;;;;;;;9.40;3.47;;;1.80;92.50;;;;;;4975471;28;20050;-50
2021/01/24 08:54:34;;;;;;;6.82;3.05;;;1.80;92.50;;;;;;4992435;28;20046;-53
2021/01/24 08:57:10;;;;;;;8.18;3.05;;;1.80;92.40;;;;;;4992320;28;20392;-51
2021/01/24 08:59:37;;;;;;;7.38;2.90;;;1.90;92.40;;;;;;4990195;28;20129;-53
2021/01/24 09:02:04;;;;;;;7.45;2.97;;;1.90;92.50;;;;;;4992518;28;20046;-52
2021/01/24 09:04:31;;;;;;;6.25;2.75;;;2.00;92.50;;;;;;4992068;28;20046;-51
2021/01/24 09:07:12;;;;;;;5.70;2.63;;;2.00;92.50;;;;;;4989062;28;20066;-52
2021/01/24 09:09:43;;;;;;;6.93;2.47;;;2.00;92.70;;;;;;4979100;28;20031;-49
2021/01/24 09:12:11;;;;;;;8.15;2.50;;;2.10;92.50;;;;;;4992828;28;20133;-50
2021/01/24 09:14:38;;;;;;;4.68;1.90;;;2.10;92.50;;;;;;4989748;28;20133;-53
2021/01/24 09:17:09;;;;;;;4.63;1.90;;;2.20;92.50;;;;;;4988979;28;20085;-49
2021/01/24 09:19:39;;;;;;;6.30;2.00;;;2.20;92.40;;;;;;4991273;28;20042;-49
2021/01/24 09:22:06;;;;;;;5.75;1.70;;;2.20;92.40;;;;;;4991914;28;20050;-52
2021/01/24 09:24:32;;;;;;;4.00;1.42;;;2.30;92.50;;;;;;4991711;28;20046;-53
2021/01/24 09:26:58;;;;;;;6.68;2.03;;;2.30;92.40;;;;;;4990986;28;20568;-51
2021/01/24 09:29:24;;;;;;;4.25;1.60;;;2.40;92.40;;;;;;4991143;28;20042;-53
2021/01/24 09:31:50;;;;;;;5.18;1.85;;;2.40;92.40;;;;;;4992038;28;20038;-51
2021/01/24 09:34:16;;;;;;;5.90;1.50;;;2.50;92.40;;;;;;4991402;28;20049;-53
2021/01/24 09:36:41;;;;;;;5.40;1.77;;;2.60;92.40;;;;;;4990824;28;20118;-55
2021/01/24 09:39:07;;;;;;;3.80;1.63;;;2.60;92.30;;;;;;4991193;28;20050;-52
2021/01/24 09:41:34;;;;;;;3.38;1.45;;;2.70;92.40;;;;;;4991468;28;20054;-50
2021/01/24 09:44:01;;;;;;;6.32;1.88;;;2.70;92.40;;;;;;4991744;28;20034;-52
2021/01/24 09:46:27;;;;;;;4.05;1.60;;;2.80;92.50;;;;;;4984270;28;20042;-50
2021/01/24 09:48:52;;;;;;;3.38;1.70;;;2.90;92.40;;;;;;4991802;28;20046;-51
2021/01/24 09:51:18;;;;;;;4.20;1.60;;;2.90;92.40;;;;;;4991512;28;20517;-52
2021/01/24 09:53:48;;;;;;;5.53;1.63;;;3.00;92.40;;;;;;4988634;28;20034;-52
2021/01/24 09:56:13;;;;;;;5.05;1.50;;;3.10;92.30;;;;;;4986513;28;20038;-54
2021/01/24 09:58:39;;;;;;;6.38;1.73;;;3.20;92.30;;;;;;4991134;28;20541;-55
2021/01/24 10:01:05;;;;;;;4.28;1.70;;;3.20;92.30;;;;;;4991442;28;20041;-55
2021/01/24 10:03:31;;;;;;;4.68;1.70;;;3.20;92.40;;;;;;4990192;28;20042;-52
2021/01/24 10:05:56;;;;;;;2.97;1.55;;;3.30;92.10;;;;;;4986928;28;20034;-52
2021/01/24 10:08:22;;;;;;;5.72;1.70;;;3.40;92.00;;;;;;4990513;28;20049;-54
2021/01/24 10:10:48;;;;;;;2.92;1.35;;;3.40;92.10;;;;;;4986240;28;20040;-55
2021/01/24 10:13:14;;;;;;;7.53;1.80;;;3.50;92.10;;;;;;4988325;28;20433;-54
2021/01/24 10:15:40;;;;;;;4.43;1.40;;;3.50;92.00;;;;;;4987680;28;20145;-54
2021/01/24 10:18:06;;;;;;;7.18;1.63;;;3.50;92.00;;;;;;4990453;28;20055;-51
2021/01/24 10:20:32;;;;;;;4.05;1.83;;;3.50;91.90;;;;;;4990537;28;20034;-55
2021/01/24 10:22:58;;;;;;;5.45;1.80;;;3.60;91.90;;;;;;4989645;28;20034;-51
2021/01/24 10:25:24;;;;;;;6.70;1.67;;;3.60;92.00;;;;;;4986542;28;20061;-49
2021/01/24 10:27:50;;;;;;;6.97;1.70;;;3.70;91.90;;;;;;4988390;28;20487;-51
2021/01/24 10:30:16;;;;;;;3.47;1.80;;;3.70;91.90;;;;;;4987735;28;20046;-50
2021/01/24 10:32:42;;;;;;;5.13;1.83;;;3.80;91.80;;;;;;4984716;28;20411;-49
2021/01/24 10:35:08;;;;;;;6.38;1.77;;;3.80;91.70;;;;;;4990694;28;20049;-50
2021/01/24 10:37:34;;;;;;;3.83;1.50;;;3.90;91.70;;;;;;4989982;28;20026;-53
2021/01/24 10:40:00;;;;;;;4.82;1.50;;;3.90;91.60;;;;;;4986988;28;20057;-53
2021/01/24 10:42:26;;;;;;;3.88;1.63;;;4.00;91.40;;;;;;4989232;28;20403;-52
2021/01/24 10:44:52;;;;;;;8.23;2.65;;;4.10;91.50;;;;;;4986267;28;20049;-53
2021/01/24 10:47:17;;;;;;;5.40;1.42;;;4.20;91.50;;;;;;4986121;28;20144;-52
2021/01/24 10:49:43;;;;;;;6.05;1.55;;;4.20;91.20;;;;;;4988267;28;20050;-55
2021/01/24 10:52:08;;;;;;;4.20;1.40;;;4.30;91.10;;;;;;4987547;28;20037;-52
2021/01/24 10:54:37;;;;;;;7.78;1.48;;;4.30;91.00;;;;;;4986634;28;20550;-51
2021/01/24 10:57:03;;;;;;;4.80;1.30;;;4.20;90.90;;;;;;4988061;28;20046;-52
2021/01/24 10:59:29;;;;;;;3.88;1.20;;;4.30;90.80;;;;;;4986877;28;20503;-52
2021/01/24 11:01:55;;;;;;;4.38;1.48;;;4.30;91.00;;;;;;4984784;28;20077;-55
2021/01/24 11:04:21;;;;;;;2.42;1.20;;;4.30;90.80;;;;;;4988730;28;20386;-56
2021/01/24 11:06:47;;;;;;;2.38;1.40;;;4.30;90.40;;;;;;4971606;28;20075;-55
2021/01/24 11:09:13;;;;;;;2.75;1.50;;;4.30;90.50;;;;;;4989630;28;20407;-56
2021/01/24 11:11:38;;;;;;;1.65;1.20;;;4.30;90.40;;;;;;4987982;28;20038;-55
2021/01/24 11:14:04;;;;;;;3.83;1.42;;;4.30;90.60;;;;;;4988820;28;20041;-54
2021/01/24 11:16:30;;;;;;;4.75;1.75;;;4.30;90.70;;;;;;4989014;28;20088;-55
2021/01/24 11:18:55;;;;;;;2.25;1.50;;;4.30;90.80;;;;;;4991638;28;20057;-55
2021/01/24 11:21:21;;;;;;;4.95;1.60;;;4.30;90.90;;;;;;4991415;28;20046;-55
2021/01/24 11:23:46;;;;;;;2.95;1.42;;;4.40;90.70;;;;;;4991497;28;20046;-55
2021/01/24 11:26:12;;;;;;;3.58;1.20;;;4.40;90.60;;;;;;4992531;28;20482;-53
2021/01/24 11:28:38;;;;;;;3.90;1.35;;;4.90;90.70;;;;;;4990861;28;20154;-52
2021/01/24 11:31:04;;;;;;;4.72;1.40;;;4.50;90.20;;;;;;4993424;28;20075;-56
2021/01/24 11:33:30;;;;;;;3.03;1.30;;;4.50;90.00;;;;;;4991168;28;20109;-53
2021/01/24 11:35:56;;;;;;;3.50;1.17;;;4.50;89.00;;;;;;4988309;28;20038;-52
2021/01/24 11:38:23;;;;;;;3.20;1.20;;;4.50;88.20;;;;;;4992955;28;20046;-52
2021/01/24 11:40:48;;;;;;;2.30;1.20;;;4.50;88.20;;;;;;4991963;28;20117;-52
2021/01/24 11:43:14;;;;;;;2.95;1.30;;;4.50;88.10;;;;;;4992066;28;20491;-53
2021/01/24 11:45:40;;;;;;;3.92;1.25;;;4.50;88.40;;;;;;4974935;28;20039;-50
2021/01/24 11:48:06;;;;;;;5.03;1.30;;;4.60;88.30;;;;;;4989991;28;20042;-53
2021/01/24 11:50:31;;;;;;;5.90;1.30;;;4.60;88.60;;;;;;4991680;28;20096;-54
2021/01/24 11:52:57;;;;;;;2.83;1.30;;;4.60;88.10;;;;;;4991903;28;20046;-51
2021/01/24 11:55:22;;;;;;;2.92;1.33;;;4.60;87.50;;;;;;4992153;28;20078;-56
2021/01/24 11:57:48;;;;;;;2.97;1.20;;;4.60;87.10;;;;;;4990488;28;20458;-55
2021/01/24 12:00:14;;;;;;;2.13;1.25;;;4.70;87.90;;;;;;4992139;28;20074;-55
2021/01/24 12:02:40;;;;;;;3.20;1.08;;;4.70;88.00;;;;;;4992455;28;20097;-56
2021/01/24 12:05:06;;;;;;;4.13;1.30;;;4.70;87.80;;;;;;4992738;28;20069;-56
2021/01/24 12:07:31;;;;;;;3.03;1.17;;;4.80;88.10;;;;;;4991847;28;20045;-56
2021/01/24 12:09:57;;;;;;;2.67;1.27;;;4.80;87.90;;;;;;4993036;28;20438;-54
2021/01/24 12:12:22;;;;;;;2.35;1.08;;;4.90;88.40;;;;;;4990391;28;20046;-54
2021/01/24 12:14:48;;;;;;;2.28;1.02;;;4.90;87.90;;;;;;4988972;28;20044;-54
2021/01/24 12:17:16;;;;;;;2.95;0.70;;;4.90;87.40;;;;;;4989458;28;20042;-56
2021/01/24 12:19:41;;;;;;;2.38;0.88;;;5.00;84.30;;;;;;4989283;28;20049;-55
2021/01/24 12:22:07;;;;;;;2.13;0.90;;;5.00;84.90;;;;;;4987304;28;20034;-56
2021/01/24 12:24:33;;;;;;;1.65;0.80;;;5.00;84.70;;;;;;4987099;28;20046;-56
2021/01/24 12:26:58;;;;;;;5.22;1.00;;;5.00;85.10;;;;;;4969293;28;20046;-55
2021/01/24 12:29:25;;;;;;;1.98;0.85;;;4.90;84.10;;;;;;4978792;28;20193;-54
2021/01/24 12:31:50;;;;;;;5.25;0.90;;;5.00;85.30;;;;;;4987865;28;20137;-56
2021/01/24 12:34:16;;;;;;;3.15;1.13;;;5.00;85.50;;;;;;4992896;28;20058;-56
2021/01/24 12:36:41;;;;;;;5.35;0.82;;;5.00;85.80;;;;;;4990023;28;20039;-56
2021/01/24 12:39:07;;;;;;;7.72;3.10;;;5.00;86.00;;;;;;4989310;28;20113;-56
2021/01/24 12:41:33;;;;;;;4.80;1.10;;;5.20;85.60;;;;;;4989264;28;20035;-55
2021/01/24 12:43:58;;;;;;;3.35;1.00;;;5.10;85.50;;;;;;4973430;28;20042;-56
2021/01/24 12:46:37;;;;;;;5.10;1.02;;;5.10;85.20;;;;;;4987708;28;20045;-56